Terminal Aerodrome Forecast
Issued by NWS

Home | Current Version | Previous Version | Graphics & Text | Print | Product List | Glossary On
Versions: 1 2 3 4 5 6 7 8 9 10 11 12 13 14 15 16 17 18 19 20 21 22 23 24
000
FTUS45 KGGW 231140
TAFGDV
TAF
KGDV 231140Z 2312/2412 23008KT P6SM BKN090 WS020/28040KT
     FM231700 23012KT P6SM BKN100
     FM240000 23011KT P6SM SCT120 WS020/26040KT
     FM240800 26017KT P6SM BKN070=

USA.gov is the U.S. government's official web portal to all federal, state and local government web resources and services.